Windermere — V7SK7 — position and weather

sailwx.info

Track history (hours):
 
Tides and Currents Weather Stations Pressure Air Temp Water Temp Dewpoint Dewpoint Depression Visibility Wind Speed Wind Dir Waves Ship Positions

Windermere

Last reported at 2017-Oct-15 08:22 UTC. Time now 2017-Oct-19 23:47 UTC.
Position N 26°14' W 015°30'.

Length 80 m; draft 5 m.

Type: Port tender. MMSI: 538003672.

Date/timePositionNaut miles runAvg speedWind from/ knotsBaromVisibWave heightAir tempDewpointWater temp
2017-Oct-15 08:22N 26°14' W 015°30'1212.4
2017-Oct-15 07:26N 26°22' W 015°20'812.1
2017-Oct-15 06:45N 26°28' W 015°14'1711.8
2017-Oct-15 05:21N 26°39' W 015°01'412.1
2017-Oct-15 05:00N 26°42' W 014°57'612.2
2017-Oct-15 04:30N 26°46' W 014°52'612.5
2017-Oct-15 04:00N 26°51' W 014°48'712.8
2017-Oct-15 03:30N 26°56' W 014°43'612.9
2017-Oct-15 03:00N 27°00' W 014°38'612.7
2017-Oct-15 02:30N 27°05' W 014°33'613.1
2017-Oct-15 02:00N 27°11' W 014°29'713.1
2017-Oct-15 01:30N 27°16' W 014°25'613.0
2017-Oct-15 01:00N 27°22' W 014°21'713.1
2017-Oct-15 00:30N 27°27' W 014°17'713.1
2017-Oct-15 00:00N 27°33' W 014°13'713.4
2017-Oct-14 23:30N 27°38' W 014°09'713.5
2017-Oct-14 23:00N 27°44' W 014°04'713.3
2017-Oct-14 22:30N 27°49' W 013°60'713.1
2017-Oct-14 22:00N 27°54' W 013°55'713.1
2017-Oct-14 21:30N 27°59' W 013°51'712.9
2017-Oct-14 20:59N 28°05' W 013°46'612.8
2017-Oct-14 20:30N 28°10' W 013°42'712.8
2017-Oct-14 19:59N 28°15' W 013°38'1013.1
2017-Oct-14 19:13N 28°24' W 013°33'313.2
2017-Oct-14 19:00N 28°27' W 013°31'1513.1
2017-Oct-14 17:51N 28°40' W 013°23'513.2
2017-Oct-14 17:28N 28°44' W 013°20'612.8
2017-Oct-14 17:00N 28°49' W 013°16'612.8
2017-Oct-14 16:30N 28°55' W 013°13'1712.8
2017-Oct-14 15:08N 29°10' W 013°03'312.8
2017-Oct-14 14:53N 29°13' W 013°01'6612.8
2017-Oct-14 09:43N 30°08' W 012°20'29013.0
2017-Oct-13 11:25N 33°45' W 008°32'613.6
2017-Oct-13 11:00N 33°49' W 008°27'1013.5
2017-Oct-13 10:16N 33°56' W 008°19'613.5
2017-Oct-13 09:49N 34°00' W 008°14'1813.3
2017-Oct-13 08:29N 34°13' W 007°59'713.2
2017-Oct-13 07:57N 34°18' W 007°53'613.1
2017-Oct-13 07:30N 34°22' W 007°48'713.2
2017-Oct-13 06:57N 34°27' W 007°42'3013.6
2017-Oct-13 04:43N 34°49' W 007°16'314.1
2017-Oct-13 04:29N 34°51' W 007°13'713.9
2017-Oct-13 03:58N 34°56' W 007°07'7912.8
2017-Oct-12 21:50N 35°52' W 005°60'811.8
2017-Oct-12 21:11N 35°56' W 005°52'212.4
2017-Oct-12 21:00N 35°56' W 005°49'1112.8
2017-Oct-12 20:10N 35°57' W 005°36'212.6
2017-Oct-12 20:00N 35°58' W 005°33'612.2
2017-Oct-12 19:30N 35°60' W 005°26'612.1
2017-Oct-12 19:00N 36°01' W 005°19'611.9
2017-Oct-12 18:30N 36°02' W 005°12'18012.4
2017-Oct-12 04:05N 36°35' W 001°33'112.6
2017-Oct-12 04:00N 36°36' W 001°31'1412.7
2017-Oct-12 02:56N 36°39' W 001°15'613.2
2017-Oct-12 02:30N 36°41' W 001°08'813.3
2017-Oct-12 01:52N 36°43' W 000°58'513.3
2017-Oct-12 01:30N 36°45' W 000°52'613.1
2017-Oct-12 01:00N 36°46' W 000°45'612.9
2017-Oct-12 00:30N 36°48' W 000°37'713.0
2017-Oct-12 00:00N 36°50' W 000°29'713.1
2017-Oct-11 23:30N 36°52' W 000°21'612.9
2017-Oct-11 23:00N 36°54' W 000°14'612.8
2017-Oct-11 22:30N 36°56' W 000°06'612.8
2017-Oct-11 22:00N 36°58' E 000°02'712.9
2017-Oct-11 21:27N 36°60' E 000°10'612.8
2017-Oct-11 21:00N 37°01' E 000°17'713.0
2017-Oct-11 20:30N 37°03' E 000°25'613.2
2017-Oct-11 20:00N 37°05' E 000°33'713.1
2017-Oct-11 19:30N 37°07' E 000°41'713.1
2017-Oct-11 19:00N 37°09' E 000°49'713.2
2017-Oct-11 18:30N 37°11' E 000°57'713.2
2017-Oct-11 18:00N 37°12' E 001°05'713.3
2017-Oct-11 17:30N 37°14' E 001°13'713.3
2017-Oct-11 17:00N 37°16' E 001°21'58812.3
2017-Oct-09 17:19N 36°42' E 013°36'612.3
2017-Oct-09 16:50N 36°41' E 013°43'412.2
2017-Oct-09 16:30N 36°40' E 013°48'611.9
2017-Oct-09 16:00N 36°38' E 013°55'611.9
2017-Oct-09 15:30N 36°36' E 014°02'612.1
2017-Oct-09 15:00N 36°34' E 014°09'611.6
2017-Oct-09 14:30N 36°33' E 014°16'611.7
2017-Oct-09 14:00N 36°31' E 014°23'611.9
2017-Oct-09 13:30N 36°30' E 014°30'612.1
2017-Oct-09 13:00N 36°28' E 014°38'612.0
2017-Oct-09 12:30N 36°28' E 014°45'  
2017-Oct-06 16:39N 40°55' E 028°50'6 5.0
2017-Oct-06 15:24N 40°58' E 028°57'2 4.4
2017-Oct-06 15:00N 40°59' E 028°59'51 4.6
2017-Oct-06 03:45N 41°36' E 029°46'3312.0
2017-Oct-06 00:59N 41°51' E 030°26'  
Track history (hours):
 
Tides and Currents Weather Stations Pressure Air Temp Water Temp Dewpoint Dewpoint Depression Visibility Wind Speed Wind Dir Waves Ship Positions

Windermere

Last reported at 2017-Oct-15 08:22 UTC. Time now 2017-Oct-19 23:47 UTC.
Position N 26°14' W 015°30'.

Length 80 m; draft 5 m.

Type: Port tender. MMSI: 538003672.

Date/timePositionNaut miles runAvg speedWind from/ knotsBaromVisibWave heightAir tempDewpointWater temp
2017-Oct-15 08:22N 26°14' W 015°30'1212.4
2017-Oct-15 07:26N 26°22' W 015°20'812.1
2017-Oct-15 06:45N 26°28' W 015°14'1711.8
2017-Oct-15 05:21N 26°39' W 015°01'412.1
2017-Oct-15 05:00N 26°42' W 014°57'612.2
2017-Oct-15 04:30N 26°46' W 014°52'612.5
2017-Oct-15 04:00N 26°51' W 014°48'712.8
2017-Oct-15 03:30N 26°56' W 014°43'612.9
2017-Oct-15 03:00N 27°00' W 014°38'612.7
2017-Oct-15 02:30N 27°05' W 014°33'613.1
2017-Oct-15 02:00N 27°11' W 014°29'713.1
2017-Oct-15 01:30N 27°16' W 014°25'613.0
2017-Oct-15 01:00N 27°22' W 014°21'713.1
2017-Oct-15 00:30N 27°27' W 014°17'713.1
2017-Oct-15 00:00N 27°33' W 014°13'713.4
2017-Oct-14 23:30N 27°38' W 014°09'713.5
2017-Oct-14 23:00N 27°44' W 014°04'713.3
2017-Oct-14 22:30N 27°49' W 013°60'713.1
2017-Oct-14 22:00N 27°54' W 013°55'713.1
2017-Oct-14 21:30N 27°59' W 013°51'712.9
2017-Oct-14 20:59N 28°05' W 013°46'612.8
2017-Oct-14 20:30N 28°10' W 013°42'712.8
2017-Oct-14 19:59N 28°15' W 013°38'1013.1
2017-Oct-14 19:13N 28°24' W 013°33'313.2
2017-Oct-14 19:00N 28°27' W 013°31'1513.1
2017-Oct-14 17:51N 28°40' W 013°23'513.2
2017-Oct-14 17:28N 28°44' W 013°20'612.8
2017-Oct-14 17:00N 28°49' W 013°16'612.8
2017-Oct-14 16:30N 28°55' W 013°13'1712.8
2017-Oct-14 15:08N 29°10' W 013°03'312.8
2017-Oct-14 14:53N 29°13' W 013°01'6612.8
2017-Oct-14 09:43N 30°08' W 012°20'29013.0
2017-Oct-13 11:25N 33°45' W 008°32'613.6
2017-Oct-13 11:00N 33°49' W 008°27'1013.5
2017-Oct-13 10:16N 33°56' W 008°19'613.5
2017-Oct-13 09:49N 34°00' W 008°14'1813.3
2017-Oct-13 08:29N 34°13' W 007°59'713.2
2017-Oct-13 07:57N 34°18' W 007°53'613.1
2017-Oct-13 07:30N 34°22' W 007°48'713.2
2017-Oct-13 06:57N 34°27' W 007°42'3013.6
2017-Oct-13 04:43N 34°49' W 007°16'314.1
2017-Oct-13 04:29N 34°51' W 007°13'713.9
2017-Oct-13 03:58N 34°56' W 007°07'7912.8
2017-Oct-12 21:50N 35°52' W 005°60'811.8
2017-Oct-12 21:11N 35°56' W 005°52'212.4
2017-Oct-12 21:00N 35°56' W 005°49'1112.8
2017-Oct-12 20:10N 35°57' W 005°36'212.6
2017-Oct-12 20:00N 35°58' W 005°33'612.2
2017-Oct-12 19:30N 35°60' W 005°26'612.1
2017-Oct-12 19:00N 36°01' W 005°19'611.9
2017-Oct-12 18:30N 36°02' W 005°12'18012.4
2017-Oct-12 04:05N 36°35' W 001°33'112.6
2017-Oct-12 04:00N 36°36' W 001°31'1412.7
2017-Oct-12 02:56N 36°39' W 001°15'613.2
2017-Oct-12 02:30N 36°41' W 001°08'813.3
2017-Oct-12 01:52N 36°43' W 000°58'513.3
2017-Oct-12 01:30N 36°45' W 000°52'613.1
2017-Oct-12 01:00N 36°46' W 000°45'612.9
2017-Oct-12 00:30N 36°48' W 000°37'713.0
2017-Oct-12 00:00N 36°50' W 000°29'713.1
2017-Oct-11 23:30N 36°52' W 000°21'612.9
2017-Oct-11 23:00N 36°54' W 000°14'612.8
2017-Oct-11 22:30N 36°56' W 000°06'612.8
2017-Oct-11 22:00N 36°58' E 000°02'712.9
2017-Oct-11 21:27N 36°60' E 000°10'612.8
2017-Oct-11 21:00N 37°01' E 000°17'713.0
2017-Oct-11 20:30N 37°03' E 000°25'613.2
2017-Oct-11 20:00N 37°05' E 000°33'713.1
2017-Oct-11 19:30N 37°07' E 000°41'713.1
2017-Oct-11 19:00N 37°09' E 000°49'713.2
2017-Oct-11 18:30N 37°11' E 000°57'713.2
2017-Oct-11 18:00N 37°12' E 001°05'713.3
2017-Oct-11 17:30N 37°14' E 001°13'713.3
2017-Oct-11 17:00N 37°16' E 001°21'58812.3
2017-Oct-09 17:19N 36°42' E 013°36'612.3
2017-Oct-09 16:50N 36°41' E 013°43'412.2
2017-Oct-09 16:30N 36°40' E 013°48'611.9
2017-Oct-09 16:00N 36°38' E 013°55'611.9
2017-Oct-09 15:30N 36°36' E 014°02'612.1
2017-Oct-09 15:00N 36°34' E 014°09'611.6
2017-Oct-09 14:30N 36°33' E 014°16'611.7
2017-Oct-09 14:00N 36°31' E 014°23'611.9
2017-Oct-09 13:30N 36°30' E 014°30'612.1
2017-Oct-09 13:00N 36°28' E 014°38'612.0
2017-Oct-09 12:30N 36°28' E 014°45'  
2017-Oct-06 16:39N 40°55' E 028°50'6 5.0
2017-Oct-06 15:24N 40°58' E 028°57'2 4.4
2017-Oct-06 15:00N 40°59' E 028°59'51 4.6
2017-Oct-06 03:45N 41°36' E 029°46'3312.0
2017-Oct-06 00:59N 41°51' E 030°26'  

Dump ship's entire track history